sensor_id;sensor_type;location;lat;lon;timestamp;pressure;altitude;pressure_sealevel;temperature;humidity
64876;BME280;51369;49.862;9.908;2023-06-26T00:01:26;98252.19;;;20.80;61.01
64876;BME280;51369;49.862;9.908;2023-06-26T00:03:55;98253.34;;;20.77;61.25
64876;BME280;51369;49.862;9.908;2023-06-26T00:06:20;98250.13;;;20.72;61.68
64876;BME280;51369;49.862;9.908;2023-06-26T00:08:45;98249.63;;;20.67;61.62
64876;BME280;51369;49.862;9.908;2023-06-26T00:11:11;98249.16;;;20.62;61.87
64876;BME280;51369;49.862;9.908;2023-06-26T00:13:36;98258.66;;;20.58;61.54
64876;BME280;51369;49.862;9.908;2023-06-26T00:16:01;98252.56;;;20.55;60.77
64876;BME280;51369;49.862;9.908;2023-06-26T00:18:29;98256.56;;;20.51;60.67
64876;BME280;51369;49.862;9.908;2023-06-26T00:20:54;98258.69;;;20.47;60.97
64876;BME280;51369;49.862;9.908;2023-06-26T00:23:20;98255.22;;;20.45;61.92
64876;BME280;51369;49.862;9.908;2023-06-26T00:25:45;98256.34;;;20.42;61.78
64876;BME280;51369;49.862;9.908;2023-06-26T00:28:10;98249.25;;;20.40;61.65
64876;BME280;51369;49.862;9.908;2023-06-26T00:30:37;98248.72;;;20.35;61.80
64876;BME280;51369;49.862;9.908;2023-06-26T00:33:02;98248.13;;;20.31;61.30
64876;BME280;51369;49.862;9.908;2023-06-26T00:35:30;98248.50;;;20.27;62.45
64876;BME280;51369;49.862;9.908;2023-06-26T00:37:56;98252.38;;;20.24;62.53
64876;BME280;51369;49.862;9.908;2023-06-26T00:40:21;98250.75;;;20.22;61.86
64876;BME280;51369;49.862;9.908;2023-06-26T00:42:46;98251.75;;;20.21;62.01
64876;BME280;51369;49.862;9.908;2023-06-26T00:45:13;98248.41;;;20.17;62.29
64876;BME280;51369;49.862;9.908;2023-06-26T00:47:38;98245.78;;;20.15;62.26
64876;BME280;51369;49.862;9.908;2023-06-26T00:50:05;98243.06;;;20.15;62.47
64876;BME280;51369;49.862;9.908;2023-06-26T00:52:31;98250.53;;;20.13;62.48
64876;BME280;51369;49.862;9.908;2023-06-26T00:54:58;98245.19;;;20.12;62.59
64876;BME280;51369;49.862;9.908;2023-06-26T00:57:24;98250.91;;;20.09;62.43
64876;BME280;51369;49.862;9.908;2023-06-26T00:59:50;98244.81;;;20.05;62.18
64876;BME280;51369;49.862;9.908;2023-06-26T01:02:15;98244.22;;;20.02;61.90
64876;BME280;51369;49.862;9.908;2023-06-26T01:04:52;98234.63;;;19.96;62.16
64876;BME280;51369;49.862;9.908;2023-06-26T01:07:18;98238.63;;;19.92;62.21
64876;BME280;51369;49.862;9.908;2023-06-26T01:09:48;98237.25;;;19.87;62.61
64876;BME280;51369;49.862;9.908;2023-06-26T01:12:14;98226.69;;;19.82;62.48
64876;BME280;51369;49.862;9.908;2023-06-26T01:14:40;98228.91;;;19.77;62.73
64876;BME280;51369;49.862;9.908;2023-06-26T01:17:05;98225.56;;;19.73;62.68
64876;BME280;51369;49.862;9.908;2023-06-26T01:19:32;98223.22;;;19.69;62.67
64876;BME280;51369;49.862;9.908;2023-06-26T01:22:11;98223.72;;;19.63;62.92
64876;BME280;51369;49.862;9.908;2023-06-26T01:24:45;98225.81;;;19.59;63.00
64876;BME280;51369;49.862;9.908;2023-06-26T01:27:19;98227.19;;;19.54;63.35
64876;BME280;51369;49.862;9.908;2023-06-26T01:29:49;98220.19;;;19.49;63.84
64876;BME280;51369;49.862;9.908;2023-06-26T01:32:15;98222.31;;;19.46;63.61
64876;BME280;51369;49.862;9.908;2023-06-26T01:34:42;98215.47;;;19.40;63.16
64876;BME280;51369;49.862;9.908;2023-06-26T01:37:08;98212.97;;;19.37;64.07
64876;BME280;51369;49.862;9.908;2023-06-26T01:39:34;98214.34;;;19.32;63.70
64876;BME280;51369;49.862;9.908;2023-06-26T01:41:59;98219.94;;;19.30;64.35
64876;BME280;51369;49.862;9.908;2023-06-26T01:44:35;98220.69;;;19.21;63.63
64876;BME280;51369;49.862;9.908;2023-06-26T01:47:03;98219.06;;;19.18;64.08
64876;BME280;51369;49.862;9.908;2023-06-26T01:50:00;98215.94;;;19.12;64.25
64876;BME280;51369;49.862;9.908;2023-06-26T01:52:41;98213.44;;;19.09;65.09
64876;BME280;51369;49.862;9.908;2023-06-26T01:55:23;98214.72;;;19.05;65.20
64876;BME280;51369;49.862;9.908;2023-06-26T01:57:54;98214.44;;;19.08;64.48
64876;BME280;51369;49.862;9.908;2023-06-26T02:00:21;98207.75;;;19.01;64.62
64876;BME280;51369;49.862;9.908;2023-06-26T02:02:46;98209.00;;;18.97;64.56
64876;BME280;51369;49.862;9.908;2023-06-26T02:05:13;98217.19;;;18.97;65.61
64876;BME280;51369;49.862;9.908;2023-06-26T02:07:39;98211.97;;;18.94;65.02
64876;BME280;51369;49.862;9.908;2023-06-26T02:10:05;98207.59;;;18.91;64.90
64876;BME280;51369;49.862;9.908;2023-06-26T02:12:32;98209.59;;;18.89;65.69
64876;BME280;51369;49.862;9.908;2023-06-26T02:14:57;98205.88;;;18.90;66.01
64876;BME280;51369;49.862;9.908;2023-06-26T02:17:23;98196.03;;;18.88;65.27
64876;BME280;51369;49.862;9.908;2023-06-26T02:19:49;98207.09;;;18.86;65.66
64876;BME280;51369;49.862;9.908;2023-06-26T02:22:15;98209.84;;;18.86;64.85
64876;BME280;51369;49.862;9.908;2023-06-26T02:24:41;98200.50;;;18.89;65.05
64876;BME280;51369;49.862;9.908;2023-06-26T02:27:07;98204.59;;;18.83;65.12
64876;BME280;51369;49.862;9.908;2023-06-26T02:29:35;98204.59;;;18.83;65.36
64876;BME280;51369;49.862;9.908;2023-06-26T02:32:01;98208.34;;;18.82;65.25
64876;BME280;51369;49.862;9.908;2023-06-26T02:34:26;98210.31;;;18.80;65.14
64876;BME280;51369;49.862;9.908;2023-06-26T02:36:52;98210.56;;;18.77;65.35
64876;BME280;51369;49.862;9.908;2023-06-26T02:39:21;98214.28;;;18.76;65.81
64876;BME280;51369;49.862;9.908;2023-06-26T02:41:46;98208.94;;;18.74;64.78
64876;BME280;51369;49.862;9.908;2023-06-26T02:44:12;98211.78;;;18.73;65.39
64876;BME280;51369;49.862;9.908;2023-06-26T02:46:38;98203.72;;;18.71;65.35
64876;BME280;51369;49.862;9.908;2023-06-26T02:49:03;98210.16;;;18.70;64.86
64876;BME280;51369;49.862;9.908;2023-06-26T02:51:32;98211.28;;;18.68;65.73
64876;BME280;51369;49.862;9.908;2023-06-26T02:53:59;98201.47;;;18.65;65.80
64876;BME280;51369;49.862;9.908;2023-06-26T02:56:25;98200.59;;;18.65;66.06
64876;BME280;51369;49.862;9.908;2023-06-26T02:58:55;98204.88;;;18.56;66.67
64876;BME280;51369;49.862;9.908;2023-06-26T03:01:21;98204.75;;;18.58;65.91
64876;BME280;51369;49.862;9.908;2023-06-26T03:03:47;98205.75;;;18.57;65.55
64876;BME280;51369;49.862;9.908;2023-06-26T03:06:15;98205.88;;;18.55;65.87
64876;BME280;51369;49.862;9.908;2023-06-26T03:08:41;98203.38;;;18.52;66.41
64876;BME280;51369;49.862;9.908;2023-06-26T03:11:08;98201.97;;;18.46;65.80
64876;BME280;51369;49.862;9.908;2023-06-26T03:13:35;98198.72;;;18.41;66.27
64876;BME280;51369;49.862;9.908;2023-06-26T03:16:02;98197.22;;;18.37;66.44
64876;BME280;51369;49.862;9.908;2023-06-26T03:18:27;98197.84;;;18.41;66.41
64876;BME280;51369;49.862;9.908;2023-06-26T03:20:54;98197.84;;;18.41;66.48
64876;BME280;51369;49.862;9.908;2023-06-26T03:23:20;98197.00;;;18.40;66.05
64876;BME280;51369;49.862;9.908;2023-06-26T03:25:46;98197.00;;;18.40;66.10
64876;BME280;51369;49.862;9.908;2023-06-26T03:28:22;98196.34;;;18.37;66.22
64876;BME280;51369;49.862;9.908;2023-06-26T03:30:47;98196.59;;;18.34;66.49
64876;BME280;51369;49.862;9.908;2023-06-26T03:33:14;98194.84;;;18.33;66.05
64876;BME280;51369;49.862;9.908;2023-06-26T03:35:40;98194.97;;;18.31;66.32
64876;BME280;51369;49.862;9.908;2023-06-26T03:38:08;98195.31;;;18.27;65.93
64876;BME280;51369;49.862;9.908;2023-06-26T03:40:33;98197.06;;;18.28;66.20
64876;BME280;51369;49.862;9.908;2023-06-26T03:42:58;98201.66;;;18.27;66.57
64876;BME280;51369;49.862;9.908;2023-06-26T03:45:24;98195.31;;;18.27;66.62
64876;BME280;51369;49.862;9.908;2023-06-26T03:47:50;98190.97;;;18.24;66.70
64876;BME280;51369;49.862;9.908;2023-06-26T03:50:16;98199.03;;;18.26;66.55
64876;BME280;51369;49.862;9.908;2023-06-26T03:52:42;98196.31;;;18.26;66.18
64876;BME280;51369;49.862;9.908;2023-06-26T03:55:08;98202.66;;;18.26;66.19
64876;BME280;51369;49.862;9.908;2023-06-26T03:57:34;98198.16;;;18.25;66.44
64876;BME280;51369;49.862;9.908;2023-06-26T03:59:59;98205.50;;;18.25;66.28
64876;BME280;51369;49.862;9.908;2023-06-26T04:02:25;98202.88;;;18.23;66.92
64876;BME280;51369;49.862;9.908;2023-06-26T04:04:50;98199.16;;;18.24;66.41
64876;BME280;51369;49.862;9.908;2023-06-26T04:07:17;98196.66;;;18.21;66.52
64876;BME280;51369;49.862;9.908;2023-06-26T04:09:43;98197.66;;;18.20;67.02
64876;BME280;51369;49.862;9.908;2023-06-26T04:12:08;98197.53;;;18.21;66.69
64876;BME280;51369;49.862;9.908;2023-06-26T04:14:33;98199.38;;;18.21;67.06
64876;BME280;51369;49.862;9.908;2023-06-26T04:16:59;98204.84;;;18.21;67.00
64876;BME280;51369;49.862;9.908;2023-06-26T04:19:28;98203.22;;;18.18;67.09
64876;BME280;51369;49.862;9.908;2023-06-26T04:21:53;98203.22;;;18.18;67.54
64876;BME280;51369;49.862;9.908;2023-06-26T04:24:18;98203.22;;;18.18;67.47
64876;BME280;51369;49.862;9.908;2023-06-26T04:26:44;98203.97;;;18.20;67.40
64876;BME280;51369;49.862;9.908;2023-06-26T04:29:10;98202.13;;;18.21;67.30
64876;BME280;51369;49.862;9.908;2023-06-26T04:31:36;98206.94;;;18.17;67.69
64876;BME280;51369;49.862;9.908;2023-06-26T04:34:02;98210.66;;;18.16;68.39
64876;BME280;51369;49.862;9.908;2023-06-26T04:36:27;98211.66;;;18.15;68.52
64876;BME280;51369;49.862;9.908;2023-06-26T04:38:57;98205.22;;;18.16;69.48
64876;BME280;51369;49.862;9.908;2023-06-26T04:41:22;98200.63;;;18.17;69.73
64876;BME280;51369;49.862;9.908;2023-06-26T04:43:49;98199.50;;;18.19;69.23
64876;BME280;51369;49.862;9.908;2023-06-26T04:46:14;98204.63;;;18.24;69.86
64876;BME280;51369;49.862;9.908;2023-06-26T04:48:40;98210.97;;;18.25;70.26
64876;BME280;51369;49.862;9.908;2023-06-26T04:51:05;98206.47;;;18.24;70.06
64876;BME280;51369;49.862;9.908;2023-06-26T04:53:30;98209.84;;;18.27;69.72
64876;BME280;51369;49.862;9.908;2023-06-26T04:55:56;98205.03;;;18.31;68.70
64876;BME280;51369;49.862;9.908;2023-06-26T04:58:21;98205.66;;;18.34;68.96
64876;BME280;51369;49.862;9.908;2023-06-26T05:00:47;98193.84;;;18.34;69.67
64876;BME280;51369;49.862;9.908;2023-06-26T05:03:13;98201.34;;;18.43;69.86
64876;BME280;51369;49.862;9.908;2023-06-26T05:05:39;98198.03;;;18.50;69.57
64876;BME280;51369;49.862;9.908;2023-06-26T05:10:40;98198.09;;;18.62;68.86
64876;BME280;51369;49.862;9.908;2023-06-26T05:13:05;98193.88;;;18.69;68.69
64876;BME280;51369;49.862;9.908;2023-06-26T05:15:30;98210.44;;;18.78;68.78
64876;BME280;51369;49.862;9.908;2023-06-26T05:17:55;98207.97;;;18.87;68.70
64876;BME280;51369;49.862;9.908;2023-06-26T05:20:21;98203.63;;;18.95;68.61
64876;BME280;51369;49.862;9.908;2023-06-26T05:22:46;98197.16;;;19.07;70.70
64876;BME280;51369;49.862;9.908;2023-06-26T05:25:12;98198.91;;;19.19;70.79
64876;BME280;51369;49.862;9.908;2023-06-26T05:27:38;98202.41;;;19.33;70.85
64876;BME280;51369;49.862;9.908;2023-06-26T05:30:04;98200.28;;;19.47;70.46
64876;BME280;51369;49.862;9.908;2023-06-26T05:32:30;98206.53;;;19.61;69.07
64876;BME280;51369;49.862;9.908;2023-06-26T05:34:57;98203.66;;;19.73;68.45
64876;BME280;51369;49.862;9.908;2023-06-26T05:37:24;98203.75;;;19.83;67.74
64876;BME280;51369;49.862;9.908;2023-06-26T05:39:51;98200.63;;;19.88;67.93
64876;BME280;51369;49.862;9.908;2023-06-26T05:42:17;98204.34;;;19.98;67.50
64876;BME280;51369;49.862;9.908;2023-06-26T05:44:43;98204.72;;;20.04;67.21
64876;BME280;51369;49.862;9.908;2023-06-26T05:47:08;98200.44;;;20.11;67.03
64876;BME280;51369;49.862;9.908;2023-06-26T05:49:34;98202.69;;;20.18;66.99
64876;BME280;51369;49.862;9.908;2023-06-26T05:51:59;98211.88;;;20.28;66.73
64876;BME280;51369;49.862;9.908;2023-06-26T05:54:25;98202.84;;;20.37;66.48
64876;BME280;51369;49.862;9.908;2023-06-26T05:56:58;98203.97;;;20.45;66.47
64876;BME280;51369;49.862;9.908;2023-06-26T05:59:24;98199.72;;;20.53;66.55
64876;BME280;51369;49.862;9.908;2023-06-26T06:01:52;98197.31;;;20.59;66.44
64876;BME280;51369;49.862;9.908;2023-06-26T06:04:18;98201.25;;;20.66;66.37
64876;BME280;51369;49.862;9.908;2023-06-26T06:06:43;98199.72;;;20.73;66.21
64876;BME280;51369;49.862;9.908;2023-06-26T06:09:09;98197.16;;;20.82;66.76
64876;BME280;51369;49.862;9.908;2023-06-26T06:11:34;98189.25;;;20.88;66.52
64876;BME280;51369;49.862;9.908;2023-06-26T06:14:00;98190.44;;;20.95;66.26
64876;BME280;51369;49.862;9.908;2023-06-26T06:16:26;98189.66;;;21.04;66.52
64876;BME280;51369;49.862;9.908;2023-06-26T06:18:54;98184.75;;;21.08;67.06
64876;BME280;51369;49.862;9.908;2023-06-26T06:21:19;98192.91;;;21.19;67.45
64876;BME280;51369;49.862;9.908;2023-06-26T06:23:44;98192.72;;;21.32;67.94
64876;BME280;51369;49.862;9.908;2023-06-26T06:26:10;98189.00;;;21.42;67.53
64876;BME280;51369;49.862;9.908;2023-06-26T06:28:36;98187.78;;;21.56;67.67
64876;BME280;51369;49.862;9.908;2023-06-26T06:31:01;98186.94;;;21.65;67.07
64876;BME280;51369;49.862;9.908;2023-06-26T06:33:27;98182.94;;;21.79;67.52
64876;BME280;51369;49.862;9.908;2023-06-26T06:35:52;98187.75;;;21.96;66.88
64876;BME280;51369;49.862;9.908;2023-06-26T06:38:17;98184.78;;;22.09;66.26
64876;BME280;51369;49.862;9.908;2023-06-26T06:40:43;98185.50;;;22.21;65.43
64876;BME280;51369;49.862;9.908;2023-06-26T06:43:08;98187.41;;;22.39;64.73
64876;BME280;51369;49.862;9.908;2023-06-26T06:45:33;98185.78;;;22.56;64.76
64876;BME280;51369;49.862;9.908;2023-06-26T06:47:59;98182.59;;;22.70;63.59
64876;BME280;51369;49.862;9.908;2023-06-26T06:50:24;98179.13;;;22.88;62.77
64876;BME280;51369;49.862;9.908;2023-06-26T06:52:49;98175.91;;;23.02;62.77
64876;BME280;51369;49.862;9.908;2023-06-26T06:55:15;98185.75;;;23.14;61.37
64876;BME280;51369;49.862;9.908;2023-06-26T06:57:40;98178.31;;;23.24;61.04
64876;BME280;51369;49.862;9.908;2023-06-26T07:00:08;98180.19;;;23.33;61.38
64876;BME280;51369;49.862;9.908;2023-06-26T07:02:37;98180.00;;;23.45;60.04
64876;BME280;51369;49.862;9.908;2023-06-26T07:05:04;98182.75;;;23.54;59.50
64876;BME280;51369;49.862;9.908;2023-06-26T07:07:31;98189.94;;;23.65;58.56
64876;BME280;51369;49.862;9.908;2023-06-26T07:10:14;98180.63;;;23.76;57.95
64876;BME280;51369;49.862;9.908;2023-06-26T07:12:40;98193.72;;;23.91;58.05
64876;BME280;51369;49.862;9.908;2023-06-26T07:15:06;98183.38;;;24.03;58.05
64876;BME280;51369;49.862;9.908;2023-06-26T07:17:32;98184.72;;;24.17;57.49
64876;BME280;51369;49.862;9.908;2023-06-26T07:20:00;98177.66;;;24.32;57.63
64876;BME280;51369;49.862;9.908;2023-06-26T07:22:26;98175.22;;;24.47;56.83
64876;BME280;51369;49.862;9.908;2023-06-26T07:24:51;98176.22;;;24.63;55.81
64876;BME280;51369;49.862;9.908;2023-06-26T07:27:17;98171.16;;;24.77;54.86
64876;BME280;51369;49.862;9.908;2023-06-26T07:29:45;98176.66;;;24.94;55.05
64876;BME280;51369;49.862;9.908;2023-06-26T07:32:11;98168.38;;;25.12;55.41
64876;BME280;51369;49.862;9.908;2023-06-26T07:34:37;98171.25;;;25.28;54.86
64876;BME280;51369;49.862;9.908;2023-06-26T07:37:03;98171.34;;;25.45;54.49
64876;BME280;51369;49.862;9.908;2023-06-26T07:39:29;98173.16;;;25.62;54.16
64876;BME280;51369;49.862;9.908;2023-06-26T07:41:54;98165.69;;;25.80;53.94
64876;BME280;51369;49.862;9.908;2023-06-26T07:44:19;98172.66;;;26.01;53.67
64876;BME280;51369;49.862;9.908;2023-06-26T07:46:45;98171.31;;;26.21;53.24
64876;BME280;51369;49.862;9.908;2023-06-26T07:49:11;98176.44;;;26.42;53.37
64876;BME280;51369;49.862;9.908;2023-06-26T07:51:37;98178.00;;;26.61;52.59
64876;BME280;51369;49.862;9.908;2023-06-26T07:54:02;98173.53;;;26.76;52.28
64876;BME280;51369;49.862;9.908;2023-06-26T07:56:27;98164.34;;;26.91;52.59
64876;BME280;51369;49.862;9.908;2023-06-26T07:58:53;98161.44;;;27.09;51.52
64876;BME280;51369;49.862;9.908;2023-06-26T08:01:18;98167.66;;;27.28;51.67
64876;BME280;51369;49.862;9.908;2023-06-26T08:03:44;98164.84;;;27.44;51.00
64876;BME280;51369;49.862;9.908;2023-06-26T08:06:09;98162.19;;;27.59;50.04
64876;BME280;51369;49.862;9.908;2023-06-26T08:08:34;98171.72;;;27.72;50.25
64876;BME280;51369;49.862;9.908;2023-06-26T08:11:00;98163.47;;;27.87;50.00
64876;BME280;51369;49.862;9.908;2023-06-26T08:13:25;98163.41;;;28.03;49.75
64876;BME280;51369;49.862;9.908;2023-06-26T08:15:50;98168.03;;;28.19;48.84
64876;BME280;51369;49.862;9.908;2023-06-26T08:18:17;98171.28;;;28.31;47.67
64876;BME280;51369;49.862;9.908;2023-06-26T08:20:42;98167.91;;;28.43;46.72
64876;BME280;51369;49.862;9.908;2023-06-26T08:23:08;98161.06;;;28.54;47.19
64876;BME280;51369;49.862;9.908;2023-06-26T08:25:33;98157.06;;;28.57;47.37
64876;BME280;51369;49.862;9.908;2023-06-26T08:27:58;98154.22;;;28.65;47.23
64876;BME280;51369;49.862;9.908;2023-06-26T08:30:24;98155.22;;;28.72;47.31
64876;BME280;51369;49.862;9.908;2023-06-26T08:32:54;98161.94;;;28.77;47.22
64876;BME280;51369;49.862;9.908;2023-06-26T08:35:19;98156.84;;;28.89;46.60
64876;BME280;51369;49.862;9.908;2023-06-26T08:37:44;98162.44;;;29.04;46.83
64876;BME280;51369;49.862;9.908;2023-06-26T08:40:10;98157.41;;;29.22;46.89
64876;BME280;51369;49.862;9.908;2023-06-26T08:42:35;98158.44;;;29.44;46.75
64876;BME280;51369;49.862;9.908;2023-06-26T08:45:01;98154.47;;;29.68;45.44
64876;BME280;51369;49.862;9.908;2023-06-26T08:47:26;98155.72;;;29.95;45.60
64876;BME280;51369;49.862;9.908;2023-06-26T08:50:04;98159.28;;;30.18;44.87
64876;BME280;51369;49.862;9.908;2023-06-26T08:53:04;98163.25;;;30.45;44.75
64876;BME280;51369;49.862;9.908;2023-06-26T08:55:31;98162.25;;;30.67;44.01
64876;BME280;51369;49.862;9.908;2023-06-26T08:57:57;98156.88;;;30.87;43.56
64876;BME280;51369;49.862;9.908;2023-06-26T09:00:23;98158.38;;;31.11;43.89
64876;BME280;51369;49.862;9.908;2023-06-26T09:02:49;98151.50;;;31.35;43.01
64876;BME280;51369;49.862;9.908;2023-06-26T09:05:14;98147.19;;;31.60;43.12
64876;BME280;51369;49.862;9.908;2023-06-26T09:07:40;98146.47;;;31.80;41.63
64876;BME280;51369;49.862;9.908;2023-06-26T09:10:06;98153.03;;;32.00;42.37
64876;BME280;51369;49.862;9.908;2023-06-26T09:12:32;98156.78;;;32.20;41.36
64876;BME280;51369;49.862;9.908;2023-06-26T09:14:57;98153.22;;;32.40;41.31
64876;BME280;51369;49.862;9.908;2023-06-26T09:17:30;98159.31;;;32.56;40.82
64876;BME280;51369;49.862;9.908;2023-06-26T09:19:56;98155.03;;;32.74;40.66
64876;BME280;51369;49.862;9.908;2023-06-26T09:22:22;98152.97;;;32.89;39.64
64876;BME280;51369;49.862;9.908;2023-06-26T09:24:48;98153.81;;;33.09;38.55
64876;BME280;51369;49.862;9.908;2023-06-26T09:27:13;98155.09;;;33.26;38.75
64876;BME280;51369;49.862;9.908;2023-06-26T09:29:39;98155.13;;;33.46;38.70
64876;BME280;51369;49.862;9.908;2023-06-26T09:32:04;98148.66;;;33.66;38.33
64876;BME280;51369;49.862;9.908;2023-06-26T09:34:30;98144.75;;;33.80;38.94
64876;BME280;51369;49.862;9.908;2023-06-26T09:36:57;98144.31;;;33.96;36.49
64876;BME280;51369;49.862;9.908;2023-06-26T09:39:23;98142.72;;;34.13;37.13
64876;BME280;51369;49.862;9.908;2023-06-26T09:41:48;98146.13;;;34.28;35.59
64876;BME280;51369;49.862;9.908;2023-06-26T09:44:14;98143.72;;;34.45;36.01
64876;BME280;51369;49.862;9.908;2023-06-26T09:46:39;98141.69;;;34.59;37.46
64876;BME280;51369;49.862;9.908;2023-06-26T09:49:06;98140.69;;;34.78;34.87
64876;BME280;51369;49.862;9.908;2023-06-26T09:51:33;98132.22;;;34.91;34.19
64876;BME280;51369;49.862;9.908;2023-06-26T09:53:59;98136.41;;;35.07;35.09
64876;BME280;51369;49.862;9.908;2023-06-26T09:56:25;98125.31;;;35.19;34.38
64876;BME280;51369;49.862;9.908;2023-06-26T09:58:51;98118.75;;;35.32;34.97
64876;BME280;51369;49.862;9.908;2023-06-26T10:01:17;98120.81;;;35.43;34.22
64876;BME280;51369;49.862;9.908;2023-06-26T10:03:43;98123.88;;;35.60;36.22
64876;BME280;51369;49.862;9.908;2023-06-26T10:06:11;98114.22;;;35.74;34.36
64876;BME280;51369;49.862;9.908;2023-06-26T10:08:37;98111.78;;;35.84;34.25
64876;BME280;51369;49.862;9.908;2023-06-26T10:11:04;98108.41;;;35.94;33.83
64876;BME280;51369;49.862;9.908;2023-06-26T10:13:37;98109.59;;;36.04;34.19
64876;BME280;51369;49.862;9.908;2023-06-26T10:16:06;98115.06;;;36.17;34.42
64876;BME280;51369;49.862;9.908;2023-06-26T10:18:36;98114.53;;;36.27;33.56
64876;BME280;51369;49.862;9.908;2023-06-26T10:21:05;98115.19;;;36.41;33.37
64876;BME280;51369;49.862;9.908;2023-06-26T10:23:31;98104.84;;;36.53;33.58
64876;BME280;51369;49.862;9.908;2023-06-26T10:25:58;98104.75;;;36.60;32.66
64876;BME280;51369;49.862;9.908;2023-06-26T10:28:25;98095.50;;;36.71;32.12
64876;BME280;51369;49.862;9.908;2023-06-26T10:30:53;98095.81;;;36.81;32.60
64876;BME280;51369;49.862;9.908;2023-06-26T10:33:20;98100.38;;;36.94;33.69
64876;BME280;51369;49.862;9.908;2023-06-26T10:35:46;98098.81;;;37.09;34.60
64876;BME280;51369;49.862;9.908;2023-06-26T10:38:11;98102.28;;;37.23;34.39
64876;BME280;51369;49.862;9.908;2023-06-26T10:40:47;98094.09;;;37.33;33.20
64876;BME280;51369;49.862;9.908;2023-06-26T10:43:17;98105.13;;;37.46;34.15
64876;BME280;51369;49.862;9.908;2023-06-26T10:45:45;98104.53;;;37.56;34.92
64876;BME280;51369;49.862;9.908;2023-06-26T10:48:14;98096.56;;;37.65;34.53
64876;BME280;51369;49.862;9.908;2023-06-26T10:50:39;98106.47;;;37.67;34.67
64876;BME280;51369;49.862;9.908;2023-06-26T10:56:01;98101.22;;;37.83;34.01
64876;BME280;51369;49.862;9.908;2023-06-26T10:58:31;98094.13;;;37.92;32.90
64876;BME280;51369;49.862;9.908;2023-06-26T11:03:43;98096.91;;;38.03;33.71
64876;BME280;51369;49.862;9.908;2023-06-26T11:06:11;98091.53;;;38.14;33.60
64876;BME280;51369;49.862;9.908;2023-06-26T11:08:49;98103.00;;;38.24;33.67
64876;BME280;51369;49.862;9.908;2023-06-26T11:11:17;98092.63;;;38.41;35.01
64876;BME280;51369;49.862;9.908;2023-06-26T11:13:44;98091.78;;;38.40;30.93
64876;BME280;51369;49.862;9.908;2023-06-26T11:16:12;98087.84;;;38.41;33.34
64876;BME280;51369;49.862;9.908;2023-06-26T11:18:38;98096.16;;;38.48;33.57
64876;BME280;51369;49.862;9.908;2023-06-26T11:21:07;98097.03;;;38.49;34.00
64876;BME280;51369;49.862;9.908;2023-06-26T11:23:35;98101.69;;;38.43;33.87
64876;BME280;51369;49.862;9.908;2023-06-26T11:26:20;98099.91;;;38.25;32.81
64876;BME280;51369;49.862;9.908;2023-06-26T11:28:55;98101.50;;;38.33;34.70
64876;BME280;51369;49.862;9.908;2023-06-26T11:31:29;98103.91;;;38.41;34.12
64876;BME280;51369;49.862;9.908;2023-06-26T11:33:56;98114.19;;;38.47;33.19
64876;BME280;51369;49.862;9.908;2023-06-26T11:36:25;98105.91;;;38.29;32.34
64876;BME280;51369;49.862;9.908;2023-06-26T11:38:58;98110.63;;;38.12;33.70
64876;BME280;51369;49.862;9.908;2023-06-26T11:41:27;98108.56;;;37.95;34.31
64876;BME280;51369;49.862;9.908;2023-06-26T11:43:53;98116.19;;;37.71;34.11
64876;BME280;51369;49.862;9.908;2023-06-26T11:46:20;98121.06;;;37.53;35.12
64876;BME280;51369;49.862;9.908;2023-06-26T11:48:46;98109.91;;;37.34;35.80
64876;BME280;51369;49.862;9.908;2023-06-26T11:51:15;98104.00;;;37.24;36.46
64876;BME280;51369;49.862;9.908;2023-06-26T11:53:42;98103.53;;;37.27;34.84
64876;BME280;51369;49.862;9.908;2023-06-26T11:56:17;98107.38;;;37.14;35.41
64876;BME280;51369;49.862;9.908;2023-06-26T11:59:03;98103.41;;;36.92;35.85
64876;BME280;51369;49.862;9.908;2023-06-26T12:01:42;98098.66;;;36.93;34.95
64876;BME280;51369;49.862;9.908;2023-06-26T12:04:11;98111.88;;;37.04;36.83
64876;BME280;51369;49.862;9.908;2023-06-26T12:06:38;98106.22;;;36.92;36.01
64876;BME280;51369;49.862;9.908;2023-06-26T12:09:07;98106.19;;;36.80;34.50
64876;BME280;51369;49.862;9.908;2023-06-26T12:11:35;98111.09;;;36.85;36.34
64876;BME280;51369;49.862;9.908;2023-06-26T12:14:01;98105.66;;;37.02;35.69
64876;BME280;51369;49.862;9.908;2023-06-26T12:16:29;98113.38;;;37.06;36.04
64876;BME280;51369;49.862;9.908;2023-06-26T12:19:03;98109.56;;;36.71;36.69
64876;BME280;51369;49.862;9.908;2023-06-26T12:24:00;98118.19;;;36.28;38.43
64876;BME280;51369;49.862;9.908;2023-06-26T12:26:26;98114.97;;;36.06;36.43
64876;BME280;51369;49.862;9.908;2023-06-26T12:28:51;98118.28;;;35.78;36.39
64876;BME280;51369;49.862;9.908;2023-06-26T12:31:19;98116.00;;;35.50;37.72
64876;BME280;51369;49.862;9.908;2023-06-26T12:33:45;98118.84;;;35.18;36.23
64876;BME280;51369;49.862;9.908;2023-06-26T12:36:14;98117.38;;;34.84;37.80
64876;BME280;51369;49.862;9.908;2023-06-26T12:38:40;98120.53;;;34.63;38.45
64876;BME280;51369;49.862;9.908;2023-06-26T12:41:12;98126.69;;;34.72;37.81
64876;BME280;51369;49.862;9.908;2023-06-26T12:43:38;98124.44;;;34.94;37.76
64876;BME280;51369;49.862;9.908;2023-06-26T12:46:05;98110.47;;;35.12;37.87
64876;BME280;51369;49.862;9.908;2023-06-26T12:48:40;98103.41;;;35.34;37.56
64876;BME280;51369;49.862;9.908;2023-06-26T12:51:11;98111.66;;;35.72;37.69
64876;BME280;51369;49.862;9.908;2023-06-26T12:53:38;98122.94;;;36.09;37.93
64876;BME280;51369;49.862;9.908;2023-06-26T12:56:10;98115.78;;;36.31;37.32
64876;BME280;51369;49.862;9.908;2023-06-26T12:58:36;98115.44;;;36.39;36.35
64876;BME280;51369;49.862;9.908;2023-06-26T13:01:07;98111.06;;;36.25;35.19
64876;BME280;51369;49.862;9.908;2023-06-26T13:03:43;98103.03;;;36.10;35.35
64876;BME280;51369;49.862;9.908;2023-06-26T13:06:08;98113.03;;;35.88;36.05
64876;BME280;51369;49.862;9.908;2023-06-26T13:08:34;98103.00;;;35.74;37.17
64876;BME280;51369;49.862;9.908;2023-06-26T13:10:59;98107.59;;;35.68;38.18